sensor_id;sensor_type;location;lat;lon;timestamp;temperature;humidity
2477;DHT22;1249;51.270;6.756;2023-03-23T00:00:49;14.30;99.90
2477;DHT22;1249;51.270;6.756;2023-03-23T00:03:14;14.30;99.90
2477;DHT22;1249;51.270;6.756;2023-03-23T00:05:40;14.30;99.90
2477;DHT22;1249;51.270;6.756;2023-03-23T00:08:19;14.30;99.90
2477;DHT22;1249;51.270;6.756;2023-03-23T00:10:49;14.30;99.90
2477;DHT22;1249;51.270;6.756;2023-03-23T00:13:18;14.40;99.90
2477;DHT22;1249;51.270;6.756;2023-03-23T00:15:45;14.40;99.90
2477;DHT22;1249;51.270;6.756;2023-03-23T00:18:11;14.40;99.90
2477;DHT22;1249;51.270;6.756;2023-03-23T00:20:55;14.40;99.90
2477;DHT22;1249;51.270;6.756;2023-03-23T00:23:23;14.40;99.90
2477;DHT22;1249;51.270;6.756;2023-03-23T00:25:54;14.40;99.90
2477;DHT22;1249;51.270;6.756;2023-03-23T00:28:24;14.40;99.90
2477;DHT22;1249;51.270;6.756;2023-03-23T00:31:02;14.40;99.90
2477;DHT22;1249;51.270;6.756;2023-03-23T00:33:34;14.40;99.90
2477;DHT22;1249;51.270;6.756;2023-03-23T00:36:04;14.40;99.90
2477;DHT22;1249;51.270;6.756;2023-03-23T00:38:31;14.40;99.90
2477;DHT22;1249;51.270;6.756;2023-03-23T00:40:57;14.40;99.90
2477;DHT22;1249;51.270;6.756;2023-03-23T00:43:24;14.50;99.90
2477;DHT22;1249;51.270;6.756;2023-03-23T00:45:50;14.40;99.90
2477;DHT22;1249;51.270;6.756;2023-03-23T00:48:19;14.40;99.90
2477;DHT22;1249;51.270;6.756;2023-03-23T00:50:44;14.40;99.90
2477;DHT22;1249;51.270;6.756;2023-03-23T00:53:10;14.50;99.90
2477;DHT22;1249;51.270;6.756;2023-03-23T00:55:35;14.50;99.90
2477;DHT22;1249;51.270;6.756;2023-03-23T00:58:01;14.40;99.90
2477;DHT22;1249;51.270;6.756;2023-03-23T01:00:26;14.50;99.90
2477;DHT22;1249;51.270;6.756;2023-03-23T01:02:55;14.40;99.90
2477;DHT22;1249;51.270;6.756;2023-03-23T01:05:21;14.40;99.90
2477;DHT22;1249;51.270;6.756;2023-03-23T01:07:47;14.30;99.90
2477;DHT22;1249;51.270;6.756;2023-03-23T01:10:14;14.30;99.90
2477;DHT22;1249;51.270;6.756;2023-03-23T01:12:44;14.30;99.90
2477;DHT22;1249;51.270;6.756;2023-03-23T01:15:14;14.40;99.90
2477;DHT22;1249;51.270;6.756;2023-03-23T01:17:41;14.30;99.90
2477;DHT22;1249;51.270;6.756;2023-03-23T01:20:10;14.30;99.90
2477;DHT22;1249;51.270;6.756;2023-03-23T01:22:37;14.30;99.90
2477;DHT22;1249;51.270;6.756;2023-03-23T01:25:03;14.30;99.90
2477;DHT22;1249;51.270;6.756;2023-03-23T01:27:28;14.30;99.90
2477;DHT22;1249;51.270;6.756;2023-03-23T01:29:54;14.30;99.90
2477;DHT22;1249;51.270;6.756;2023-03-23T01:32:19;14.30;99.90
2477;DHT22;1249;51.270;6.756;2023-03-23T01:34:46;14.30;99.90
2477;DHT22;1249;51.270;6.756;2023-03-23T01:37:11;14.30;99.90
2477;DHT22;1249;51.270;6.756;2023-03-23T01:39:37;14.30;99.90
2477;DHT22;1249;51.270;6.756;2023-03-23T01:42:03;14.30;99.90
2477;DHT22;1249;51.270;6.756;2023-03-23T01:46:58;14.20;99.90
2477;DHT22;1249;51.270;6.756;2023-03-23T01:49:31;14.20;99.90
2477;DHT22;1249;51.270;6.756;2023-03-23T01:52:01;14.20;99.90
2477;DHT22;1249;51.270;6.756;2023-03-23T01:54:28;14.20;99.90
2477;DHT22;1249;51.270;6.756;2023-03-23T01:57:03;14.20;99.90
2477;DHT22;1249;51.270;6.756;2023-03-23T01:59:32;14.10;99.90
2477;DHT22;1249;51.270;6.756;2023-03-23T02:01:59;14.10;99.90
2477;DHT22;1249;51.270;6.756;2023-03-23T02:04:26;14.10;99.90
2477;DHT22;1249;51.270;6.756;2023-03-23T02:06:53;14.10;99.90
2477;DHT22;1249;51.270;6.756;2023-03-23T02:09:19;14.20;99.90
2477;DHT22;1249;51.270;6.756;2023-03-23T02:11:46;14.10;99.90
2477;DHT22;1249;51.270;6.756;2023-03-23T02:14:12;14.10;99.90
2477;DHT22;1249;51.270;6.756;2023-03-23T02:16:55;14.10;99.90
2477;DHT22;1249;51.270;6.756;2023-03-23T02:23:07;14.10;99.90
2477;DHT22;1249;51.270;6.756;2023-03-23T02:26:02;14.10;99.90
2477;DHT22;1249;51.270;6.756;2023-03-23T02:34:02;14.00;99.90
2477;DHT22;1249;51.270;6.756;2023-03-23T02:39:09;14.00;99.90
2477;DHT22;1249;51.270;6.756;2023-03-23T02:42:08;14.00;99.90
2477;DHT22;1249;51.270;6.756;2023-03-23T02:44:41;14.00;99.90
2477;DHT22;1249;51.270;6.756;2023-03-23T02:47:12;14.00;99.90
2477;DHT22;1249;51.270;6.756;2023-03-23T02:49:40;14.00;99.90
2477;DHT22;1249;51.270;6.756;2023-03-23T02:52:12;14.00;99.90
2477;DHT22;1249;51.270;6.756;2023-03-23T02:54:42;14.00;99.90
2477;DHT22;1249;51.270;6.756;2023-03-23T02:57:08;14.00;99.90
2477;DHT22;1249;51.270;6.756;2023-03-23T02:59:34;14.00;99.90
2477;DHT22;1249;51.270;6.756;2023-03-23T03:02:17;14.00;99.90
2477;DHT22;1249;51.270;6.756;2023-03-23T03:04:52;14.00;99.90
2477;DHT22;1249;51.270;6.756;2023-03-23T03:10:23;14.00;99.90
2477;DHT22;1249;51.270;6.756;2023-03-23T03:21:07;14.00;99.90
2477;DHT22;1249;51.270;6.756;2023-03-23T03:23:34;14.00;99.90
2477;DHT22;1249;51.270;6.756;2023-03-23T03:26:03;14.00;99.90
2477;DHT22;1249;51.270;6.756;2023-03-23T03:28:31;14.00;99.90
2477;DHT22;1249;51.270;6.756;2023-03-23T03:31:00;14.10;99.90
2477;DHT22;1249;51.270;6.756;2023-03-23T03:33:28;14.00;99.90
2477;DHT22;1249;51.270;6.756;2023-03-23T03:35:57;14.10;99.90
2477;DHT22;1249;51.270;6.756;2023-03-23T03:38:24;14.00;99.90
2477;DHT22;1249;51.270;6.756;2023-03-23T03:40:50;14.00;99.90
2477;DHT22;1249;51.270;6.756;2023-03-23T03:43:16;14.00;99.90
2477;DHT22;1249;51.270;6.756;2023-03-23T03:45:41;14.10;99.90
2477;DHT22;1249;51.270;6.756;2023-03-23T03:48:07;14.10;99.90
2477;DHT22;1249;51.270;6.756;2023-03-23T03:50:36;14.10;99.90
2477;DHT22;1249;51.270;6.756;2023-03-23T03:53:01;14.10;99.90
2477;DHT22;1249;51.270;6.756;2023-03-23T03:55:27;14.10;99.90
2477;DHT22;1249;51.270;6.756;2023-03-23T03:57:54;14.10;99.90
2477;DHT22;1249;51.270;6.756;2023-03-23T04:00:20;14.10;99.90
2477;DHT22;1249;51.270;6.756;2023-03-23T04:02:48;14.10;99.90
2477;DHT22;1249;51.270;6.756;2023-03-23T04:05:16;14.10;99.90
2477;DHT22;1249;51.270;6.756;2023-03-23T04:07:42;14.10;99.90
2477;DHT22;1249;51.270;6.756;2023-03-23T04:10:09;14.10;99.90
2477;DHT22;1249;51.270;6.756;2023-03-23T04:12:36;14.10;99.90
2477;DHT22;1249;51.270;6.756;2023-03-23T04:15:02;14.10;99.90
2477;DHT22;1249;51.270;6.756;2023-03-23T04:17:28;14.10;99.90
2477;DHT22;1249;51.270;6.756;2023-03-23T04:19:55;14.10;99.90
2477;DHT22;1249;51.270;6.756;2023-03-23T04:22:26;14.10;99.90
2477;DHT22;1249;51.270;6.756;2023-03-23T04:25:01;14.10;99.90
2477;DHT22;1249;51.270;6.756;2023-03-23T04:27:31;14.10;99.90
2477;DHT22;1249;51.270;6.756;2023-03-23T04:29:57;14.10;99.90
2477;DHT22;1249;51.270;6.756;2023-03-23T04:32:25;14.10;99.90
2477;DHT22;1249;51.270;6.756;2023-03-23T04:34:54;14.10;99.90
2477;DHT22;1249;51.270;6.756;2023-03-23T04:37:20;14.10;99.90
2477;DHT22;1249;51.270;6.756;2023-03-23T04:39:46;14.10;99.90
2477;DHT22;1249;51.270;6.756;2023-03-23T04:42:11;14.10;99.90
2477;DHT22;1249;51.270;6.756;2023-03-23T04:44:39;14.10;99.90
2477;DHT22;1249;51.270;6.756;2023-03-23T04:47:04;14.10;99.90
2477;DHT22;1249;51.270;6.756;2023-03-23T04:49:30;14.10;99.90
2477;DHT22;1249;51.270;6.756;2023-03-23T04:51:55;14.10;99.90
2477;DHT22;1249;51.270;6.756;2023-03-23T04:54:22;14.10;99.90
2477;DHT22;1249;51.270;6.756;2023-03-23T04:56:47;14.10;99.90
2477;DHT22;1249;51.270;6.756;2023-03-23T04:59:13;14.10;99.90
2477;DHT22;1249;51.270;6.756;2023-03-23T05:01:40;14.10;99.90
2477;DHT22;1249;51.270;6.756;2023-03-23T05:04:11;14.10;99.90
2477;DHT22;1249;51.270;6.756;2023-03-23T05:06:38;14.10;99.90
2477;DHT22;1249;51.270;6.756;2023-03-23T05:09:03;14.10;99.90
2477;DHT22;1249;51.270;6.756;2023-03-23T05:11:30;14.10;99.90
2477;DHT22;1249;51.270;6.756;2023-03-23T05:13:58;14.10;99.90
2477;DHT22;1249;51.270;6.756;2023-03-23T05:16:24;14.10;99.90
2477;DHT22;1249;51.270;6.756;2023-03-23T05:18:49;14.10;99.90
2477;DHT22;1249;51.270;6.756;2023-03-23T05:21:15;14.10;99.90
2477;DHT22;1249;51.270;6.756;2023-03-23T05:23:40;14.10;99.90
2477;DHT22;1249;51.270;6.756;2023-03-23T05:26:06;14.20;99.90
2477;DHT22;1249;51.270;6.756;2023-03-23T05:28:32;14.20;99.90
2477;DHT22;1249;51.270;6.756;2023-03-23T05:30:57;14.20;99.90
2477;DHT22;1249;51.270;6.756;2023-03-23T05:33:23;14.20;99.90
2477;DHT22;1249;51.270;6.756;2023-03-23T05:35:49;14.20;99.90
2477;DHT22;1249;51.270;6.756;2023-03-23T05:38:15;14.10;99.90
2477;DHT22;1249;51.270;6.756;2023-03-23T05:40:41;14.20;99.90
2477;DHT22;1249;51.270;6.756;2023-03-23T05:43:08;14.20;99.90
2477;DHT22;1249;51.270;6.756;2023-03-23T05:45:34;14.10;99.90
2477;DHT22;1249;51.270;6.756;2023-03-23T05:48:00;14.10;99.90
2477;DHT22;1249;51.270;6.756;2023-03-23T05:50:26;14.10;99.90
2477;DHT22;1249;51.270;6.756;2023-03-23T05:52:54;14.10;99.90
2477;DHT22;1249;51.270;6.756;2023-03-23T05:55:20;14.10;99.90
2477;DHT22;1249;51.270;6.756;2023-03-23T05:57:45;14.20;99.90
2477;DHT22;1249;51.270;6.756;2023-03-23T06:00:12;14.10;99.90
2477;DHT22;1249;51.270;6.756;2023-03-23T06:02:46;14.20;99.90
2477;DHT22;1249;51.270;6.756;2023-03-23T06:05:12;14.20;99.90
2477;DHT22;1249;51.270;6.756;2023-03-23T06:07:39;14.20;99.90
2477;DHT22;1249;51.270;6.756;2023-03-23T06:10:08;14.30;99.90
2477;DHT22;1249;51.270;6.756;2023-03-23T06:12:35;14.20;99.90
2477;DHT22;1249;51.270;6.756;2023-03-23T06:15:01;14.20;99.90
2477;DHT22;1249;51.270;6.756;2023-03-23T06:17:26;14.30;99.90
2477;DHT22;1249;51.270;6.756;2023-03-23T06:19:53;14.20;99.90
2477;DHT22;1249;51.270;6.756;2023-03-23T06:22:18;14.20;99.90
2477;DHT22;1249;51.270;6.756;2023-03-23T06:24:44;14.30;99.90
2477;DHT22;1249;51.270;6.756;2023-03-23T06:27:10;14.30;99.90
2477;DHT22;1249;51.270;6.756;2023-03-23T06:29:36;14.30;99.90
2477;DHT22;1249;51.270;6.756;2023-03-23T06:32:04;14.30;99.90
2477;DHT22;1249;51.270;6.756;2023-03-23T06:34:30;14.30;99.90
2477;DHT22;1249;51.270;6.756;2023-03-23T06:36:56;14.30;99.90
2477;DHT22;1249;51.270;6.756;2023-03-23T06:39:22;14.30;99.90
2477;DHT22;1249;51.270;6.756;2023-03-23T06:41:48;14.40;99.90
2477;DHT22;1249;51.270;6.756;2023-03-23T06:44:13;14.40;99.90
2477;DHT22;1249;51.270;6.756;2023-03-23T06:46:40;14.40;99.90
2477;DHT22;1249;51.270;6.756;2023-03-23T06:49:06;14.30;99.90
2477;DHT22;1249;51.270;6.756;2023-03-23T06:51:32;14.30;99.90
2477;DHT22;1249;51.270;6.756;2023-03-23T06:53:58;14.30;99.90
2477;DHT22;1249;51.270;6.756;2023-03-23T06:56:24;14.50;99.90
2477;DHT22;1249;51.270;6.756;2023-03-23T06:58:49;14.90;99.90
2477;DHT22;1249;51.270;6.756;2023-03-23T07:01:15;15.30;99.90
2477;DHT22;1249;51.270;6.756;2023-03-23T07:03:41;15.40;99.90
2477;DHT22;1249;51.270;6.756;2023-03-23T07:06:08;15.60;99.90
2477;DHT22;1249;51.270;6.756;2023-03-23T07:08:34;15.80;99.90
2477;DHT22;1249;51.270;6.756;2023-03-23T07:11:00;16.00;99.90
2477;DHT22;1249;51.270;6.756;2023-03-23T07:13:26;16.10;99.90
2477;DHT22;1249;51.270;6.756;2023-03-23T07:15:52;16.20;99.90
2477;DHT22;1249;51.270;6.756;2023-03-23T07:18:19;16.40;99.90
2477;DHT22;1249;51.270;6.756;2023-03-23T07:20:52;16.40;99.90
2477;DHT22;1249;51.270;6.756;2023-03-23T07:23:18;16.50;99.90
2477;DHT22;1249;51.270;6.756;2023-03-23T07:25:44;16.60;99.90
2477;DHT22;1249;51.270;6.756;2023-03-23T07:28:11;16.50;99.90
2477;DHT22;1249;51.270;6.756;2023-03-23T07:30:42;16.50;99.90
2477;DHT22;1249;51.270;6.756;2023-03-23T07:33:08;16.40;99.90
2477;DHT22;1249;51.270;6.756;2023-03-23T07:35:35;16.50;99.90
2477;DHT22;1249;51.270;6.756;2023-03-23T07:38:01;16.50;99.90
2477;DHT22;1249;51.270;6.756;2023-03-23T07:40:28;16.50;99.90
2477;DHT22;1249;51.270;6.756;2023-03-23T07:42:56;16.50;99.90
2477;DHT22;1249;51.270;6.756;2023-03-23T07:45:23;16.60;99.90
2477;DHT22;1249;51.270;6.756;2023-03-23T07:47:49;16.50;99.90
2477;DHT22;1249;51.270;6.756;2023-03-23T07:50:15;16.50;99.90
2477;DHT22;1249;51.270;6.756;2023-03-23T07:52:41;16.50;99.90
2477;DHT22;1249;51.270;6.756;2023-03-23T07:55:11;16.60;99.90
2477;DHT22;1249;51.270;6.756;2023-03-23T07:57:43;16.60;99.90
2477;DHT22;1249;51.270;6.756;2023-03-23T08:00:09;16.70;99.90
2477;DHT22;1249;51.270;6.756;2023-03-23T08:02:40;16.80;99.90
2477;DHT22;1249;51.270;6.756;2023-03-23T08:05:07;16.70;99.90
2477;DHT22;1249;51.270;6.756;2023-03-23T08:07:34;16.80;99.90
2477;DHT22;1249;51.270;6.756;2023-03-23T08:10:00;16.90;99.90
2477;DHT22;1249;51.270;6.756;2023-03-23T08:12:26;16.90;99.90
2477;DHT22;1249;51.270;6.756;2023-03-23T08:14:52;17.00;99.90
2477;DHT22;1249;51.270;6.756;2023-03-23T08:17:19;17.00;99.90
2477;DHT22;1249;51.270;6.756;2023-03-23T08:19:45;17.00;99.90
2477;DHT22;1249;51.270;6.756;2023-03-23T08:22:11;17.10;99.90
2477;DHT22;1249;51.270;6.756;2023-03-23T08:24:37;17.20;99.90
2477;DHT22;1249;51.270;6.756;2023-03-23T08:27:03;17.20;99.90
2477;DHT22;1249;51.270;6.756;2023-03-23T08:29:29;17.20;99.90
2477;DHT22;1249;51.270;6.756;2023-03-23T08:31:54;17.20;99.90
2477;DHT22;1249;51.270;6.756;2023-03-23T08:34:22;17.30;99.90
2477;DHT22;1249;51.270;6.756;2023-03-23T08:36:48;17.20;99.90
2477;DHT22;1249;51.270;6.756;2023-03-23T08:39:13;17.20;99.90
2477;DHT22;1249;51.270;6.756;2023-03-23T08:41:43;17.30;99.90
2477;DHT22;1249;51.270;6.756;2023-03-23T08:44:10;17.40;99.90
2477;DHT22;1249;51.270;6.756;2023-03-23T08:46:35;17.40;99.90
2477;DHT22;1249;51.270;6.756;2023-03-23T08:49:01;17.40;99.90
2477;DHT22;1249;51.270;6.756;2023-03-23T08:51:26;17.50;99.90
2477;DHT22;1249;51.270;6.756;2023-03-23T08:53:53;17.40;99.90
2477;DHT22;1249;51.270;6.756;2023-03-23T08:56:19;17.50;99.90
2477;DHT22;1249;51.270;6.756;2023-03-23T08:58:45;17.40;99.90
2477;DHT22;1249;51.270;6.756;2023-03-23T09:01:11;17.40;99.90
2477;DHT22;1249;51.270;6.756;2023-03-23T09:03:37;17.50;99.90
2477;DHT22;1249;51.270;6.756;2023-03-23T09:06:05;17.40;99.90
2477;DHT22;1249;51.270;6.756;2023-03-23T09:08:31;17.30;99.90
2477;DHT22;1249;51.270;6.756;2023-03-23T09:11:01;17.40;99.90
2477;DHT22;1249;51.270;6.756;2023-03-23T09:13:28;17.30;99.90
2477;DHT22;1249;51.270;6.756;2023-03-23T09:15:54;17.30;99.90
2477;DHT22;1249;51.270;6.756;2023-03-23T09:18:20;17.20;99.90
2477;DHT22;1249;51.270;6.756;2023-03-23T09:20:45;17.30;99.90
2477;DHT22;1249;51.270;6.756;2023-03-23T09:23:12;17.30;99.90
2477;DHT22;1249;51.270;6.756;2023-03-23T09:25:38;17.40;99.90
2477;DHT22;1249;51.270;6.756;2023-03-23T09:28:04;17.50;99.90
2477;DHT22;1249;51.270;6.756;2023-03-23T09:30:31;17.60;99.90
2477;DHT22;1249;51.270;6.756;2023-03-23T09:33:00;17.50;99.90
2477;DHT22;1249;51.270;6.756;2023-03-23T09:35:27;17.50;99.90
2477;DHT22;1249;51.270;6.756;2023-03-23T09:37:53;17.50;99.90
2477;DHT22;1249;51.270;6.756;2023-03-23T09:40:22;17.50;99.90
2477;DHT22;1249;51.270;6.756;2023-03-23T09:45:25;17.40;99.90
2477;DHT22;1249;51.270;6.756;2023-03-23T09:48:14;17.50;99.90
2477;DHT22;1249;51.270;6.756;2023-03-23T09:50:46;17.50;99.90
2477;DHT22;1249;51.270;6.756;2023-03-23T09:53:30;17.50;99.90
2477;DHT22;1249;51.270;6.756;2023-03-23T09:56:05;17.50;99.90
2477;DHT22;1249;51.270;6.756;2023-03-23T10:03:58;17.30;99.90
2477;DHT22;1249;51.270;6.756;2023-03-23T10:06:25;17.20;99.90
2477;DHT22;1249;51.270;6.756;2023-03-23T10:08:57;17.10;99.90
2477;DHT22;1249;51.270;6.756;2023-03-23T10:11:37;17.00;99.90
2477;DHT22;1249;51.270;6.756;2023-03-23T10:17:24;17.00;99.90
2477;DHT22;1249;51.270;6.756;2023-03-23T10:20:32;16.90;99.90
2477;DHT22;1249;51.270;6.756;2023-03-23T10:28:45;16.90;99.90
2477;DHT22;1249;51.270;6.756;2023-03-23T10:31:22;16.90;99.90
2477;DHT22;1249;51.270;6.756;2023-03-23T10:33:51;16.90;99.90
2477;DHT22;1249;51.270;6.756;2023-03-23T10:39:02;16.90;99.90
2477;DHT22;1249;51.270;6.756;2023-03-23T10:41:30;16.80;99.90
2477;DHT22;1249;51.270;6.756;2023-03-23T10:44:16;16.90;99.90
2477;DHT22;1249;51.270;6.756;2023-03-23T10:49:26;16.80;99.90
2477;DHT22;1249;51.270;6.756;2023-03-23T10:54:49;16.80;99.90
2477;DHT22;1249;51.270;6.756;2023-03-23T10:57:27;16.80;99.90
2477;DHT22;1249;51.270;6.756;2023-03-23T11:00:23;16.80;99.90
2477;DHT22;1249;51.270;6.756;2023-03-23T11:03:37;16.90;99.90
2477;DHT22;1249;51.270;6.756;2023-03-23T11:06:06;16.90;99.90
2477;DHT22;1249;51.270;6.756;2023-03-23T11:09:32;16.90;99.90
2477;DHT22;1249;51.270;6.756;2023-03-23T11:11:38;16.90;99.90
2477;DHT22;1249;51.270;6.756;2023-03-23T11:14:26;16.90;99.90
2477;DHT22;1249;51.270;6.756;2023-03-23T11:16:55;17.00;99.90
2477;DHT22;1249;51.270;6.756;2023-03-23T11:19:30;17.00;99.90
2477;DHT22;1249;51.270;6.756;2023-03-23T11:22:22;16.90;99.90
2477;DHT22;1249;51.270;6.756;2023-03-23T11:24:53;16.70;99.90
2477;DHT22;1249;51.270;6.756;2023-03-23T11:27:21;16.50;99.90
2477;DHT22;1249;51.270;6.756;2023-03-23T11:29:53;16.50;99.90
2477;DHT22;1249;51.270;6.756;2023-03-23T11:32:23;16.40;99.90
2477;DHT22;1249;51.270;6.756;2023-03-23T11:34:55;16.30;99.90
2477;DHT22;1249;51.270;6.756;2023-03-23T11:37:40;16.20;99.90
2477;DHT22;1249;51.270;6.756;2023-03-23T11:42:37;15.90;99.90
2477;DHT22;1249;51.270;6.756;2023-03-23T11:45:35;15.90;99.90
2477;DHT22;1249;51.270;6.756;2023-03-23T11:48:17;15.80;99.90
2477;DHT22;1249;51.270;6.756;2023-03-23T11:51:05;15.80;99.90
2477;DHT22;1249;51.270;6.756;2023-03-23T11:53:45;15.80;99.90
2477;DHT22;1249;51.270;6.756;2023-03-23T11:56:36;15.70;99.90
2477;DHT22;1249;51.270;6.756;2023-03-23T11:59:05;15.60;99.90
2477;DHT22;1249;51.270;6.756;2023-03-23T12:01:41;15.60;99.90
2477;DHT22;1249;51.270;6.756;2023-03-23T12:09:28;16.40;99.90
2477;DHT22;1249;51.270;6.756;2023-03-23T12:17:45;16.80;99.90
2477;DHT22;1249;51.270;6.756;2023-03-23T12:20:42;16.90;99.90
2477;DHT22;1249;51.270;6.756;2023-03-23T12:26:16;17.10;99.90
2477;DHT22;1249;51.270;6.756;2023-03-23T12:31:16;17.20;99.90
2477;DHT22;1249;51.270;6.756;2023-03-23T12:37:04;17.20;99.90
2477;DHT22;1249;51.270;6.756;2023-03-23T12:48:13;17.40;99.90
2477;DHT22;1249;51.270;6.756;2023-03-23T12:51:07;17.40;99.90
2477;DHT22;1249;51.270;6.756;2023-03-23T12:53:45;17.50;99.90
2477;DHT22;1249;51.270;6.756;2023-03-23T12:56:35;17.50;99.90
2477;DHT22;1249;51.270;6.756;2023-03-23T13:04:49;17.90;99.90
2477;DHT22;1249;51.270;6.756;2023-03-23T13:07:22;17.90;99.90
2477;DHT22;1249;51.270;6.756;2023-03-23T13:10:07;18.10;99.90
2477;DHT22;1249;51.270;6.756;2023-03-23T13:12:37;18.80;99.90
2477;DHT22;1249;51.270;6.756;2023-03-23T13:15:10;19.20;99.90
2477;DHT22;1249;51.270;6.756;2023-03-23T13:23:19;19.50;99.90
2477;DHT22;1249;51.270;6.756;2023-03-23T13:25:50;19.40;99.90
2477;DHT22;1249;51.270;6.756;2023-03-23T13:28:20;19.10;99.90
2477;DHT22;1249;51.270;6.756;2023-03-23T13:31:15;18.90;99.90
2477;DHT22;1249;51.270;6.756;2023-03-23T13:33:49;18.80;99.90
2477;DHT22;1249;51.270;6.756;2023-03-23T13:36:25;18.80;99.90
2477;DHT22;1249;51.270;6.756;2023-03-23T13:38:51;18.70;99.90
2477;DHT22;1249;51.270;6.756;2023-03-23T13:41:19;18.60;99.90
2477;DHT22;1249;51.270;6.756;2023-03-23T13:43:45;18.50;99.90
2477;DHT22;1249;51.270;6.756;2023-03-23T13:48:48;18.40;99.90
2477;DHT22;1249;51.270;6.756;2023-03-23T13:51:32;18.40;99.90
2477;DHT22;1249;51.270;6.756;2023-03-23T13:54:18;18.30;99.90
2477;DHT22;1249;51.270;6.756;2023-03-23T13:56:57;18.20;99.90
2477;DHT22;1249;51.270;6.756;2023-03-23T14:01:55;18.20;99.90
2477;DHT22;1249;51.270;6.756;2023-03-23T14:04:23;18.10;99.90
2477;DHT22;1249;51.270;6.756;2023-03-23T14:06:56;18.10;99.90
2477;DHT22;1249;51.270;6.756;2023-03-23T14:09:32;18.10;99.90
2477;DHT22;1249;51.270;6.756;2023-03-23T14:12:02;18.10;99.90
2477;DHT22;1249;51.270;6.756;2023-03-23T14:14:40;18.10;99.90
2477;DHT22;1249;51.270;6.756;2023-03-23T14:17:24;18.20;99.90
2477;DHT22;1249;51.270;6.756;2023-03-23T14:19:55;18.80;99.90
2477;DHT22;1249;51.270;6.756;2023-03-23T14:22:25;19.40;99.90
2477;DHT22;1249;51.270;6.756;2023-03-23T14:24:53;19.80;99.90
2477;DHT22;1249;51.270;6.756;2023-03-23T14:27:23;20.00;99.90
2477;DHT22;1249;51.270;6.756;2023-03-23T14:30:04;19.90;99.90
2477;DHT22;1249;51.270;6.756;2023-03-23T14:32:31;19.70;99.90
2477;DHT22;1249;51.270;6.756;2023-03-23T14:34:58;19.50;99.90
2477;DHT22;1249;51.270;6.756;2023-03-23T14:37:25;19.40;99.90
2477;DHT22;1249;51.270;6.756;2023-03-23T14:39:53;19.30;99.90
2477;DHT22;1249;51.270;6.756;2023-03-23T14:42:29;19.10;99.90
2477;DHT22;1249;51.270;6.756;2023-03-23T14:44:57;18.90;99.90
2477;DHT22;1249;51.270;6.756;2023-03-23T14:47:26;18.80;99.90
2477;DHT22;1249;51.270;6.756;2023-03-23T14:49:55;18.70;99.90
2477;DHT22;1249;51.270;6.756;2023-03-23T14:52:23;18.80;99.90
2477;DHT22;1249;51.270;6.756;2023-03-23T14:54:49;18.90;99.90
2477;DHT22;1249;51.270;6.756;2023-03-23T14:59:48;18.80;99.90
2477;DHT22;1249;51.270;6.756;2023-03-23T15:04:54;18.70;99.90
2477;DHT22;1249;51.270;6.756;2023-03-23T15:07:25;18.70;99.90
2477;DHT22;1249;51.270;6.756;2023-03-23T15:09:51;18.90;99.90
2477;DHT22;1249;51.270;6.756;2023-03-23T15:12:25;19.30;99.90
2477;DHT22;1249;51.270;6.756;2023-03-23T15:14:58;19.50;99.90
2477;DHT22;1249;51.270;6.756;2023-03-23T15:17:27;19.80;99.90
2477;DHT22;1249;51.270;6.756;2023-03-23T15:19:54;20.20;99.90
2477;DHT22;1249;51.270;6.756;2023-03-23T15:24:50;20.70;99.90
2477;DHT22;1249;51.270;6.756;2023-03-23T15:27:40;20.90;99.90
2477;DHT22;1249;51.270;6.756;2023-03-23T15:32:42;21.20;99.90
2477;DHT22;1249;51.270;6.756;2023-03-23T15:35:21;21.20;99.90
2477;DHT22;1249;51.270;6.756;2023-03-23T15:37:51;21.30;99.90
2477;DHT22;1249;51.270;6.756;2023-03-23T15:40:19;21.30;99.90
2477;DHT22;1249;51.270;6.756;2023-03-23T15:42:46;21.40;99.90
2477;DHT22;1249;51.270;6.756;2023-03-23T15:50:19;21.30;99.90
2477;DHT22;1249;51.270;6.756;2023-03-23T15:52:46;21.30;99.90
2477;DHT22;1249;51.270;6.756;2023-03-23T15:57:48;21.20;99.90
2477;DHT22;1249;51.270;6.756;2023-03-23T16:00:18;21.00;99.90
2477;DHT22;1249;51.270;6.756;2023-03-23T16:02:46;21.00;99.90
2477;DHT22;1249;51.270;6.756;2023-03-23T16:05:14;20.80;99.90
2477;DHT22;1249;51.270;6.756;2023-03-23T16:07:39;20.70;99.90
2477;DHT22;1249;51.270;6.756;2023-03-23T16:10:06;20.60;99.90
2477;DHT22;1249;51.270;6.756;2023-03-23T16:12:32;20.50;99.90
2477;DHT22;1249;51.270;6.756;2023-03-23T16:14:58;20.50;99.90
2477;DHT22;1249;51.270;6.756;2023-03-23T16:17:23;20.50;99.90
2477;DHT22;1249;51.270;6.756;2023-03-23T16:19:50;20.40;99.90
2477;DHT22;1249;51.270;6.756;2023-03-23T16:22:15;20.20;99.90
2477;DHT22;1249;51.270;6.756;2023-03-23T16:24:41;20.10;99.90
2477;DHT22;1249;51.270;6.756;2023-03-23T16:27:09;19.90;99.90
2477;DHT22;1249;51.270;6.756;2023-03-23T16:29:35;19.80;99.90
2477;DHT22;1249;51.270;6.756;2023-03-23T16:32:01;19.60;99.90
2477;DHT22;1249;51.270;6.756;2023-03-23T16:34:26;19.50;99.90
2477;DHT22;1249;51.270;6.756;2023-03-23T16:36:54;19.40;99.90
2477;DHT22;1249;51.270;6.756;2023-03-23T16:39:20;19.30;99.90
2477;DHT22;1249;51.270;6.756;2023-03-23T16:41:46;19.20;99.90
2477;DHT22;1249;51.270;6.756;2023-03-23T16:44:12;19.20;99.90
2477;DHT22;1249;51.270;6.756;2023-03-23T16:46:37;19.10;99.90
2477;DHT22;1249;51.270;6.756;2023-03-23T16:49:03;19.00;99.90
2477;DHT22;1249;51.270;6.756;2023-03-23T16:51:29;18.80;99.90
2477;DHT22;1249;51.270;6.756;2023-03-23T16:53:55;18.70;99.90
2477;DHT22;1249;51.270;6.756;2023-03-23T16:56:20;18.60;99.90
2477;DHT22;1249;51.270;6.756;2023-03-23T16:58:46;18.60;99.90
2477;DHT22;1249;51.270;6.756;2023-03-23T17:01:11;18.50;99.90
2477;DHT22;1249;51.270;6.756;2023-03-23T17:03:38;18.50;99.90
2477;DHT22;1249;51.270;6.756;2023-03-23T17:06:04;18.40;99.90
2477;DHT22;1249;51.270;6.756;2023-03-23T17:08:30;18.50;99.90
2477;DHT22;1249;51.270;6.756;2023-03-23T17:10:56;18.50;99.90
2477;DHT22;1249;51.270;6.756;2023-03-23T17:13:21;18.50;99.90
2477;DHT22;1249;51.270;6.756;2023-03-23T17:15:51;18.40;99.90
2477;DHT22;1249;51.270;6.756;2023-03-23T17:18:17;18.40;99.90
2477;DHT22;1249;51.270;6.756;2023-03-23T17:20:43;18.40;99.90
2477;DHT22;1249;51.270;6.756;2023-03-23T17:23:09;18.30;99.90
2477;DHT22;1249;51.270;6.756;2023-03-23T17:25:35;18.30;99.90
2477;DHT22;1249;51.270;6.756;2023-03-23T17:28:00;18.30;99.90
2477;DHT22;1249;51.270;6.756;2023-03-23T17:30:26;18.30;99.90
2477;DHT22;1249;51.270;6.756;2023-03-23T17:32:52;18.30;99.90
2477;DHT22;1249;51.270;6.756;2023-03-23T17:35:18;18.20;99.90
2477;DHT22;1249;51.270;6.756;2023-03-23T17:37:44;18.20;99.90
2477;DHT22;1249;51.270;6.756;2023-03-23T17:40:10;18.20;99.90
2477;DHT22;1249;51.270;6.756;2023-03-23T17:42:38;18.20;99.90
2477;DHT22;1249;51.270;6.756;2023-03-23T17:45:05;18.20;99.90
2477;DHT22;1249;51.270;6.756;2023-03-23T17:47:32;18.20;99.90
2477;DHT22;1249;51.270;6.756;2023-03-23T17:49:57;18.10;99.90
2477;DHT22;1249;51.270;6.756;2023-03-23T17:52:23;18.10;99.90
2477;DHT22;1249;51.270;6.756;2023-03-23T17:54:49;18.00;99.90
2477;DHT22;1249;51.270;6.756;2023-03-23T17:57:14;18.00;99.90
2477;DHT22;1249;51.270;6.756;2023-03-23T17:59:40;18.00;99.90
2477;DHT22;1249;51.270;6.756;2023-03-23T18:02:06;18.00;99.90
2477;DHT22;1249;51.270;6.756;2023-03-23T18:04:32;18.00;99.90
2477;DHT22;1249;51.270;6.756;2023-03-23T18:06:58;18.00;99.90
2477;DHT22;1249;51.270;6.756;2023-03-23T18:09:24;18.00;99.90
2477;DHT22;1249;51.270;6.756;2023-03-23T18:11:51;18.00;99.90